Portada
METAR-TAF:

METAR-TAF

Aeroports :

Vandenberg Airport

Tampa, Florida, Estats Units d'Amèrica

latitud: 28-00-50N, longitud: 082-20-43W, altitud: 7 m

Observació

L'informe es va fer fa 8 minuts, a les 10:35 UTC
Vent calma
Temperatura 3°C
Humitat 93%
Pressió 1026 hPa
Visibilitat: 11.3 km
Cel clar

METAR: KVDF 191035Z AUTO 00000KT 7SM CLR 03/02 A3030 RMK AO2

Hora: 05:43 (10:43 UTC)


TAF: manca

Observacions i pronòstics meteorològics de més de 4000 aeroports (METAR i TAF).

Les estacions disponibles són els punts grocs i vermells al mapa.

Posi el ratolí al punt desitjat per veure el nom de l'estació.

Feu clic per veure les observacions i els pronòstics meteorològics.

Per canviar el mapa: feu clic els botons verds amb una creu de color negre per apropar; al botó verd amb un guió per allunyar la imatge; o en les fletxes verdes per a mapes adjacents.


METAR-TAF: